Tiempo atmosférico en la estación meteorológica de Cartaya, Huelva (15 m.)



Fecha
DESCASC
Temp. máxima en grados centígrados (hora)
DESCASC
Temp. mínima en grados centígrados (hora)
DESCASC
Temp. media en grados centígrados
DESCASC
Racha de viento máxima en m/sg (hora)
DESCASC
Velocidad máxima media en intervalos de 10 minutos(hora)
DESCASC
Precipitaciones diarias en mm
DESCASC
Precipitaciones de 00:00 a 06:00 en mm
DESCASC
Precipitaciones de 06:00 a 12:00 en mm
DESCASC
Precipitaciones de 12:00 a 18:00 en mm
DESCASC
Precipitaciones de 18:00 a 24:00 en mm
DESCASC
22-08-2019 31.7 (16:30) 19.7 (00:00) 25.7 6.94 (17:50) 3.89 (17:40) 0 0 0 0 0
23-08-2019 31.7 (12:10) 19.3 (00:00) 25.5 6.94 (20:30) 3.89 (16:00) 0 0 0 0 0
29-08-2019 32.6 (15:50) 18.5 (00:00) 25.5 6.94 (00:10) 4.17 (16:30) 0 0 0 0 0
30-08-2019 31.5 (12:00) 17.7 (00:00) 24.6 6.39 (19:50) 4.44 (17:40) 0 0 0 0 0
24-08-2019 30.7 (16:50) 18.2 (00:00) 24.5 8.06 (15:50) 5.56 (15:40) 0 0 0 0 0
07-09-2019 30.2 (15:30) 18.5 (00:00) 24.4 6.39 (17:50) 4.17 (16:30) 0 0 0 0 0
06-09-2019 30.8 (16:40) 18 (00:00) 24.4 6.11 (17:00) 3.89 (17:50) 0 0 0 0 0
31-08-2019 30.6 (13:50) 17.8 (00:00) 24.2 6.94 (17:00) 5 (17:00) 0 0 0 0 0
12-09-2019 31.5 (16:10) 16.5 (00:00) 24 12.78 (12:00) 6.67 (12:30) 0 0 0 0 0
13-09-2019 30.8 (15:50) 16.7 (00:00) 23.8 10.83 (14:40) 5.83 (12:00) 0 0 0 0 0
03-09-2019 31.2 (17:10) 16.1 (00:00) 23.7 6.94 (18:20) 4.72 (18:10) 0 0 0 0 0
04-09-2019 30 (15:20) 17.4 (00:00) 23.7 6.67 (16:00) 4.72 (16:00) 0 0 0 0 0
25-08-2019 29.5 (15:30) 17.6 (00:00) 23.6 8.33 (17:10) 5.56 (17:20) 0 0 0 0 0
08-09-2019 29.5 (12:30) 17.7 (00:00) 23.6 8.89 (16:50) 5.83 (17:00) 0 0 0 0 0
28-08-2019 30.2 (14:00) 15.8 (00:00) 23 7.78 (18:40) 5.56 (18:10) 0 0 0 0 0
14-09-2019 29.1 (17:20) 16.8 (00:00) 22.9 7.78 (13:30) 4.17 (13:50) 0 0 0 0 0
02-09-2019 29.5 (18:00) 16.1 (00:00) 22.8 8.33 (18:50) 5 (17:30) 0 0 0 0 0
10-09-2019 29 (17:10) 16.1 (05:20) 22.6 11.11 (08:10) 6.11 (08:10) 0 0 0 0 0
09-09-2019 28.1 (16:00) 16.1 (06:50) 22.1 10.28 (17:30) 6.94 (17:00) 0 0 0 0 0
21-08-2019 29.8 (14:30) 14 (00:00) 21.9 7.78 (16:40) 5.56 (16:50) 0 0 0 0 0
11-09-2019 29 (14:10) 14.8 (00:00) 21.9 10.56 (18:50) 6.67 (19:00) 0 0 0 0 0
05-09-2019 27.2 (14:00) 16.3 (00:00) 21.8 5.56 (14:10) 3.61 (13:20) 0 0 0 0 0
01-09-2019 26.3 (17:50) 17.3 (00:00) 21.8 6.67 (11:50) 3.89 (12:20) 0 0 0 0 0
26-08-2019 26 (15:30) 16.9 (00:00) 21.4 8.89 (11:30) 5 (11:40) 0 0 0 0 0
15-09-2019 26.1 (12:50) 16.6 (00:00) 21.4 7.78 (16:10) 5 (16:10) 0 0 0 0 0
27-08-2019 25.4 (16:10) 16.3 (00:00) 20.8 6.67 (17:40) 4.72 (17:30) 0 0 0 0 0
16-09-2019 25.2 (14:20) 16 (00:00) 20.6 6.67 (13:10) 4.17 (13:00) 0 0 0 0 0
17-09-2019 26.1 (14:20) 14.1 (00:00) 20.1 6.67 (18:00) 4.72 (18:00) 0 0 0 0 0
19-09-2019 24.8 (16:40) 14 (00:00) 19.4 8.61 (18:50) 5.56 (18:50) 0 0 0 0 0
18-09-2019 24.9 (15:30) 11.6 (00:00) 18.3 8.61 (15:50) 5.83 (15:50) 0 0 0 0 0

Gráficas

Temp. máximas Temp. mínimas Temp. medias Precipitaciones Rachas de viento máximas Velocidades máximas media en intervalos de 10 minutos

Datos horarios

Fecha y hora oficial Temperatura (ºC) Velocidad del viento (km/h) Dirección del viento Racha (km/h) Dirección de racha Precipitación (mm) Presión (hPa) Tendencia (hPa) Humedad (%)
2019-09-19 23:00:00 19.9 2 Oeste 9 Oeste 0 -- -- 82
2019-09-19 22:00:00 21.3 4 Oeste 12 Sudoeste 0 -- -- 81
2019-09-19 21:00:00 21.7 7 Sudoeste 18 Sudoeste 0 -- -- 79
2019-09-19 20:00:00 22.7 11 Sudoeste 27 Sudoeste 0 -- -- 73
2019-09-19 19:00:00 22.9 16 Sudoeste 31 Sudoeste 0 -- -- 72
2019-09-19 18:00:00 24.6 15 Sudoeste 26 Sudoeste 0 -- -- 58
2019-09-19 17:00:00 24.8 15 Sudoeste 25 Sudoeste 0 -- -- 62
2019-09-19 16:00:00 24.4 16 Sudoeste 24 Sudoeste 0 -- -- 63
2019-09-19 15:00:00 24.1 13 Sudoeste 21 Sudoeste 0 -- -- 64
2019-09-19 14:00:00 23.2 14 Sur 21 Sur 0 -- -- 70
2019-09-19 13:00:00 23.7 11 Sur 17 Sur 0 -- -- 71
2019-09-19 12:00:00 22.7 6 Nordeste 22 Nordeste 0 -- -- 68
2019-09-19 11:00:00 20.8 6 Norte 13 Nordeste 0 -- -- 70
2019-09-19 10:00:00 18.1 5 Nordeste 9 Nordeste 0 -- -- 80
2019-09-19 09:00:00 14.3 3 Norte 5 Noroeste 0 -- -- 93
2019-09-19 08:00:00 14.9 4 Norte 8 Norte 0 -- -- 89
2019-09-19 07:00:00 16.3 6 Norte 15 Noroeste 0 -- -- 87
2019-09-19 06:00:00 16.8 7 Noroeste 14 Norte 0 -- -- 85
2019-09-19 05:00:00 17.3 8 Noroeste 18 Noroeste 0 -- -- 81
2019-09-19 04:00:00 17.9 9 Noroeste 19 Noroeste 0 -- -- 78
2019-09-19 03:00:00 18.5 10 Noroeste 19 Norte 0 -- -- 73
2019-09-19 02:00:00 19 10 Noroeste 18 Noroeste 0 -- -- 68
2019-09-19 01:00:00 18.9 8 Noroeste 15 Noroeste 0 -- -- 68
2019-09-19 00:00:00 19.7 9 Noroeste 18 Norte 0 -- -- 72
2019-09-18 23:00:00 21 6 Oeste 17 Oeste 0 -- -- 84
2019-09-18 22:00:00 21.6 10 Oeste 24 Oeste 0 -- -- 82
2019-09-18 21:00:00 21.9 13 Sudoeste 28 Oeste 0 -- -- 80
2019-09-18 20:00:00 22.6 16 Sudoeste 30 Sudoeste 0 -- -- 78
2019-09-18 19:00:00 23.5 18 Sudoeste 28 Oeste 0 -- -- 70
2019-09-18 18:00:00 22.9 15 Sudoeste 29 Sudoeste 0 -- -- 69
2019-09-18 17:00:00 24 15 Sudoeste 28 Sudoeste 0 -- -- 67
2019-09-18 16:00:00 24.7 15 Sudoeste 31 Sudoeste 0 -- -- 61
2019-09-18 15:00:00 24.4 15 Sudoeste 23 Sudoeste 0 -- -- 60
2019-09-18 14:00:00 23.8 12 Sur 21 Sudeste 0 -- -- 67
2019-09-18 13:00:00 23.6 10 Sur 17 Sudeste 0 -- -- 64
2019-09-18 12:00:00 23.2 11 Sudeste 16 Sur 0 -- -- 64
2019-09-18 11:00:00 21.6 6 Norte 14 Oeste 0 -- -- 67
2019-09-18 10:00:00 17.6 4 Norte 8 Norte 0 -- -- 85
2019-09-18 09:00:00 12.3 3 Norte 4 Norte 0 -- -- 95
2019-09-18 08:00:00 11.8 3 Noroeste 4 Noroeste 0 -- -- 92
2019-09-18 07:00:00 13 2 Nordeste 6 Nordeste 0 -- -- 91
2019-09-18 06:00:00 14.2 4 Norte 7 Norte 0 -- -- 92
2019-09-18 05:00:00 14.8 4 Norte 9 Norte 0 -- -- 89
2019-09-18 04:00:00 16.3 2 Norte 8 Noroeste 0 -- -- 85
2019-09-18 03:00:00 17.7 4 Norte 11 Noroeste 0 -- -- 83
2019-09-18 02:00:00 18.5 6 Noroeste 13 Noroeste 0 -- -- 80
2019-09-18 01:00:00 18.5 8 Noroeste 13 Noroeste 0 -- -- 79
2019-09-18 00:00:00 17.1 5 Noroeste 9 Noroeste 0 -- -- 87
2019-09-17 23:00:00 20.4 3 Noroeste 14 Sudoeste 0 -- -- 77
2019-09-17 22:00:00 21.8 8 Sudoeste 16 Sudoeste 0 -- -- 79
2019-09-17 21:00:00 22.1 9 Oeste 20 Sudoeste 0 -- -- 75
2019-09-15 18:00:00 -- -- -- -- -- -- -- -- --
2019-09-15 17:00:00 23.9 18 Sudoeste 28 Sudoeste 0 -- -- 81
2019-09-15 16:00:00 24.9 17 Sudoeste 25 Sudoeste 0 -- -- 77
2019-09-15 15:00:00 25.4 15 Sudoeste 23 Sudoeste 0 -- -- 72
2019-09-15 14:00:00 25.5 12 Sudoeste 21 Sudoeste 0 -- -- 71
2019-09-15 13:00:00 26 9 Sur 16 Sur 0 -- -- 68
2019-09-15 12:00:00 25.1 6 Sur 11 Sur 0 -- -- 70
2019-09-15 11:00:00 24.3 5 Sur 10 Sur 0 -- -- 71
2019-09-15 10:00:00 22 4 Norte 10 Nordeste 0 -- -- 69
2019-09-15 09:00:00 18.1 5 Nordeste 11 Nordeste 0 -- -- 81
2019-09-15 08:00:00 17.4 6 Nordeste 9 Nordeste 0 -- -- 83
2019-09-15 07:00:00 17.6 6 Norte 10 Nordeste 0 -- -- 81
2019-09-15 06:00:00 17.3 5 Nordeste 12 Norte 0 -- -- 81
2019-09-15 05:00:00 17.2 6 Nordeste 9 Norte 0 -- -- 79
2019-09-15 04:00:00 16.6 5 Norte 8 Nordeste 0 -- -- 80
2019-09-15 03:00:00 17 3 Norte 6 Nordeste 0 -- -- 79
2019-09-15 02:00:00 17.5 4 Nordeste 6 Nordeste 0 -- -- 78
2019-09-15 01:00:00 18.3 4 Este 7 Este 0 -- -- 74
2019-09-15 00:00:00 19.5 3 Este 6 Este 0 -- -- 69
2019-09-14 23:00:00 21.2 3 Noroeste 6 Noroeste 0 -- -- 65
2019-09-14 22:00:00 22.4 4 Norte 6 Norte 0 -- -- 63
2019-09-14 21:00:00 24.5 4 Sudoeste 9 Sur 0 -- -- 60
2019-09-14 20:00:00 26 6 Sudoeste 10 Sudoeste 0 -- -- 54
2019-09-14 19:00:00 27 7 Sudoeste 14 Sudeste 0 -- -- 51
2019-09-14 18:00:00 27.6 10 Sudeste 23 Sudeste 0 -- -- 51
2019-09-14 17:00:00 28.2 5 Nordeste 19 Nordeste 0 -- -- 46
2019-09-14 16:00:00 26.7 11 Este 22 Este 0 -- -- 50
2019-09-14 15:00:00 24.3 7 Este 26 Este 0 -- -- 58
2019-09-14 14:00:00 24.2 12 Este 28 Este 0 -- -- 62
2019-09-14 13:00:00 26.2 11 Sudeste 20 Sudeste 0 -- -- 59
2019-09-14 12:00:00 27.1 9 Sudeste 23 Este 0 -- -- 53
2019-09-14 11:00:00 25 12 Nordeste 27 Nordeste 0 -- -- 54
2019-09-14 10:00:00 22.2 8 Nordeste 18 Nordeste 0 -- -- 58
2019-09-14 09:00:00 20.7 3 Noroeste 14 Norte 0 -- -- 61
2019-09-14 08:00:00 19.7 7 Norte 14 Norte 0 -- -- 63
2019-09-14 07:00:00 19.6 9 Norte 15 Norte 0 -- -- 64
2019-09-14 06:00:00 -- -- -- -- -- -- -- -- --
2019-09-14 05:00:00 17.6 7 Nordeste 11 Norte 0 -- -- 72
2019-09-14 04:00:00 17.5 5 Norte 12 Norte 0 -- -- 71
2019-09-14 03:00:00 17.1 7 Norte 11 Norte 0 -- -- 71
2019-09-14 02:00:00 17.3 5 Nordeste 10 Nordeste 0 -- -- 68
2019-09-14 01:00:00 17.4 6 Nordeste 9 Nordeste 0 -- -- 67
2019-09-14 00:00:00 19 4 Norte 10 Nordeste 0 -- -- 63
2019-09-13 23:00:00 20.9 6 Nordeste 18 Nordeste 0 -- -- 58
2019-09-13 22:00:00 21.3 4 Norte 12 Noroeste 0 -- -- 66
2019-09-13 21:00:00 23.6 4 Sudoeste 9 Oeste 0 -- -- 59
2019-09-13 20:00:00 25.2 5 Oeste 10 Oeste 0 -- -- 54
2019-09-13 19:00:00 25 6 Sudoeste 13 Sudoeste 0 -- -- 54
2019-09-13 18:00:00 25.7 9 Oeste 22 Sudoeste 0 -- -- 60
2019-09-13 17:00:00 29.1 12 Sudoeste 29 Este 0 -- -- 52
2019-09-13 16:00:00 30.5 14 Nordeste 36 Este 0 -- -- 30
2019-09-13 15:00:00 29.5 15 Nordeste 39 Este 0 -- -- 33
2019-09-13 14:00:00 28.8 19 Este 38 Este 0 -- -- 35
2019-09-13 13:00:00 28.4 18 Este 37 Este 0 -- -- 37
2019-09-13 12:00:00 26.7 21 Este 39 Este 0 -- -- 42
2019-09-13 11:00:00 24.2 19 Nordeste 35 Este 0 -- -- 48
2019-09-13 10:00:00 22.9 12 Nordeste 24 Nordeste 0 -- -- 52
2019-09-13 09:00:00 18.3 5 Norte 8 Norte 0 -- -- 72
2019-09-13 08:00:00 17 5 Norte 11 Norte 0 -- -- 78
2019-09-13 07:00:00 18 6 Norte 14 Nordeste 0 -- -- 76
2019-09-13 06:00:00 19.8 10 Nordeste 18 Nordeste 0 -- -- 70
2019-09-13 05:00:00 19.7 4 Nordeste 16 Nordeste 0 -- -- 69
2019-09-13 04:00:00 20.6 10 Nordeste 16 Este 0 -- -- 65
2019-09-13 03:00:00 21.6 6 Nordeste 21 Este 0 -- -- 61
2019-09-13 02:00:00 22 11 Nordeste 23 Este 0 -- -- 61
2019-09-13 01:00:00 19.7 4 Nordeste 10 Nordeste 0 -- -- 64
2019-09-13 00:00:00 19.2 6 Norte 9 Norte 0 -- -- 68
2019-09-12 23:00:00 19.4 5 Norte 9 Norte 0 -- -- 67
2019-09-12 22:00:00 20.2 5 Noroeste 10 Noroeste 0 -- -- 67
2019-09-12 21:00:00 22.2 4 Noroeste 14 Sudoeste 0 -- -- 62
2019-09-12 20:00:00 23.7 9 Sudoeste 19 Oeste 0 -- -- 63
2019-09-12 19:00:00 24.7 12 Sudoeste 20 Sudoeste 0 -- -- 62
2019-09-12 18:00:00 25.8 9 Sudoeste 19 Sudoeste 0 -- -- 56
2019-09-12 17:00:00 27 12 Sudoeste 32 Este 0 -- -- 49
2019-09-12 16:00:00 31.2 17 Este 38 Este 0 -- -- 29
2019-09-12 15:00:00 30.5 17 Este 46 Este 0 -- -- 31
2019-09-12 14:00:00 29.9 18 Este 44 Este 0 -- -- 32
2019-09-12 13:00:00 28.7 21 Este 44 Este 0 -- -- 36
2019-09-12 12:00:00 27.6 21 Este 46 Este 0 -- -- 37
2019-09-12 11:00:00 25.5 13 Nordeste 27 Nordeste 0 -- -- 39
2019-09-12 10:00:00 22.7 11 Nordeste 22 Norte 0 -- -- 39
2019-09-12 09:00:00 17.4 5 Norte 10 Norte 0 -- -- 51
2019-09-12 08:00:00 17.2 6 Nordeste 14 Nordeste 0 -- -- 54
2019-09-12 07:00:00 18 6 Nordeste 20 Nordeste 0 -- -- 52
2019-09-12 06:00:00 18.7 10 Nordeste 18 Nordeste 0 -- -- 51
2019-09-12 05:00:00 19.1 9 Nordeste 19 Nordeste 0 -- -- 54
2019-09-12 04:00:00 18 7 Nordeste 16 Nordeste 0 -- -- 67
2019-09-12 03:00:00 18.3 9 Nordeste 17 Nordeste 0 -- -- 73
2019-09-12 02:00:00 18.6 9 Nordeste 17 Norte 0 -- -- 75
2019-09-12 01:00:00 18.3 8 Nordeste 13 Nordeste 0 -- -- 74
2019-09-12 00:00:00 19.2 4 Noroeste 15 Oeste 0 -- -- 79
2019-09-11 23:00:00 21.2 7 Oeste 13 Sudoeste 0 -- -- 77
2019-09-11 22:00:00 21.4 5 Oeste 27 Noroeste 0 -- -- 68
2019-09-11 21:00:00 21.9 16 Oeste 31 Sudoeste 0 -- -- 66
2019-09-11 20:00:00 22.8 18 Oeste 36 Sudoeste 0 -- -- 59
2019-09-11 19:00:00 24.1 24 Oeste 38 Oeste 0 -- -- 54
2019-09-11 18:00:00 25.2 19 Oeste 33 Oeste 0 -- -- 48
2019-09-11 17:00:00 26.2 15 Sudoeste 30 Sudoeste 0 -- -- 48
2019-09-11 16:00:00 25.9 16 Sudoeste 28 Sudoeste 0 -- -- 43
2019-09-11 15:00:00 26.3 15 Sudoeste 28 Nordeste 0 -- -- 42
2019-09-11 14:00:00 28.9 10 Nordeste 26 Nordeste 0 -- -- 24
2019-09-11 13:00:00 27.5 10 Nordeste 29 Este 0 -- -- 26
2019-09-11 12:00:00 25.4 9 Nordeste 29 Norte 0 -- -- 29
2019-09-11 11:00:00 23.3 10 Nordeste 21 Este 0 -- -- 32
2019-09-11 10:00:00 20.1 5 Norte 10 Norte 0 -- -- 41
2019-09-11 09:00:00 15.4 5 Norte 11 Norte 0 -- -- 59
2019-09-11 08:00:00 15.1 6 Norte 20 Norte 0 -- -- 60
2019-09-11 07:00:00 16.5 12 Norte 23 Norte 0 -- -- 56
2019-09-11 06:00:00 16.9 11 Noroeste 22 Noroeste 0 -- -- 55
2019-09-11 05:00:00 17.5 10 Noroeste 22 Noroeste 0 -- -- 54
2019-09-11 04:00:00 17.7 9 Noroeste 19 Noroeste 0 -- -- 54
2019-09-11 03:00:00 18.6 10 Noroeste 22 Noroeste 0 -- -- 51
2019-09-11 02:00:00 19.4 9 Noroeste 21 Noroeste 0 -- -- 48
2019-09-11 01:00:00 19.9 10 Noroeste 21 Noroeste 0 -- -- 43
2019-09-11 00:00:00 20 11 Noroeste 22 Noroeste 0 -- -- 34
2019-09-10 23:00:00 19.5 7 Noroeste 13 Norte 0 -- -- 29
2019-09-10 22:00:00 21.8 5 Noroeste 14 Noroeste 0 -- -- 25
2019-09-10 21:00:00 24.6 6 Noroeste 26 Norte 0 -- -- 21
2019-09-10 20:00:00 27.3 13 Noroeste 33 Norte 0 -- -- 19
2019-09-10 19:00:00 28.4 18 Norte 39 Norte 0 -- -- 17
2019-09-10 18:00:00 28.7 19 Norte 38 Noroeste 0 -- -- 19
2019-09-10 17:00:00 28.8 17 Noroeste 39 Noroeste 0 -- -- 26
2019-09-10 16:00:00 27.7 18 Noroeste 37 Noroeste 0 -- -- 31
2019-09-10 15:00:00 26.4 12 Noroeste 33 Oeste 0 -- -- 37
2019-09-10 14:00:00 23.8 15 Noroeste 37 Noroeste 0 -- -- 42
2019-09-10 13:00:00 23 17 Noroeste 32 Oeste 0 -- -- 45
2019-09-10 12:00:00 22 17 Noroeste 35 Noroeste 0 -- -- 51
2019-09-10 11:00:00 20.8 15 Noroeste 32 Noroeste 0 -- -- 57
2019-09-10 10:00:00 18.9 10 Noroeste 32 Noroeste 0 -- -- 69
2019-09-10 09:00:00 17 10 Noroeste 40 Noroeste 0 -- -- 77
2019-09-10 08:00:00 16.5 18 Noroeste 39 Noroeste 0 -- -- 77
2019-09-10 07:00:00 16.1 8 Noroeste 30 Noroeste 0 -- -- 78
2019-09-10 06:00:00 16.1 16 Noroeste 33 Noroeste 0 -- -- 76
2019-09-10 05:00:00 16.4 14 Noroeste 37 Noroeste 0 -- -- 72
2019-09-10 04:00:00 17.2 14 Noroeste 34 Noroeste 0 -- -- 67
2019-09-10 03:00:00 18 9 Noroeste 23 Noroeste 0 -- -- 63
2019-09-10 02:00:00 19.4 14 Noroeste 29 Noroeste 0 -- -- 61
2019-09-10 01:00:00 21.3 14 Noroeste 32 Noroeste 0 -- -- 55
2019-09-10 00:00:00 23.5 14 Noroeste 32 Oeste 0 -- -- 38
2019-09-09 23:00:00 25.1 7 Noroeste 18 Oeste 0 -- -- 40
2019-09-09 22:00:00 26.2 9 Noroeste 21 Noroeste 0 -- -- 39
2019-09-09 21:00:00 25.2 5 Noroeste 21 Oeste 0 -- -- 71
2019-09-09 20:00:00 26.6 9 Oeste 25 Sudoeste 0 -- -- 63
2019-09-09 19:00:00 26.8 16 Sudoeste 35 Oeste 0 -- -- 62
2019-09-09 18:00:00 26.9 24 Sudoeste 37 Sudoeste 0 -- -- 61
2019-09-09 17:00:00 27.4 25 Sudoeste 37 Oeste 0 -- -- 58
2019-09-09 16:00:00 28.1 21 Sudoeste 31 Sudoeste 0 -- -- 56
2019-09-09 15:00:00 27.4 17 Sudoeste 27 Oeste 0 -- -- 61
2019-09-09 14:00:00 27.6 17 Sudoeste 27 Sudoeste 0 -- -- 57
2019-09-09 13:00:00 27.5 15 Sudoeste 24 Sur 0 -- -- 55
2019-09-09 12:00:00 26.1 10 Sudoeste 17 Sudoeste 0 -- -- 60
2019-09-09 11:00:00 25.2 8 Oeste 14 Oeste 0 -- -- 61
2019-09-09 10:00:00 21.9 4 Noroeste 8 Oeste 0 -- -- 74
2019-09-09 09:00:00 17.5 4 Noroeste 8 Noroeste 0 -- -- 93
2019-09-09 08:00:00 16.7 6 Noroeste 10 Noroeste 0 -- -- 93
2019-09-09 07:00:00 16.1 5 Norte 6 Norte 0 -- -- 92
2019-09-09 06:00:00 17.1 0 Calma 6 Norte 0 -- -- 90
2019-09-09 05:00:00 18.2 5 Norte 8 Norte 0 -- -- 91
2019-09-09 04:00:00 19.3 3 Noroeste 9 Noroeste 0 -- -- 89
2019-09-09 03:00:00 20.4 5 Noroeste 10 Noroeste 0 -- -- 87
2019-09-09 02:00:00 20.6 5 Noroeste 8 Noroeste 0 -- -- 88
2019-09-09 01:00:00 21.6 3 Noroeste 12 Sudoeste 0 -- -- 83
2019-09-09 00:00:00 23.6 8 Sudoeste 14 Sudoeste 0 -- -- 78
2019-09-08 23:00:00 23.8 9 Sudoeste 16 Sudoeste 0 -- -- 79
2019-09-08 22:00:00 24.1 8 Sur 18 Sudoeste 0 -- -- 78
2019-09-08 21:00:00 24.3 10 Sudoeste 26 Sudoeste 0 -- -- 79
2019-09-08 20:00:00 25.5 8 Sudoeste 14 Sudoeste 0 -- -- 71
2019-09-08 19:00:00 26.6 9 Sudoeste 19 Sudoeste 0 -- -- 67
2019-09-08 18:00:00 27 15 Sudoeste 30 Sur 0 -- -- 65
2019-09-08 17:00:00 27.4 21 Sudoeste 32 Sudoeste 0 -- -- 62
2019-09-08 16:00:00 28 17 Sur 30 Sudoeste 0 -- -- 57
2019-09-08 15:00:00 28.1 17 Sudoeste 29 Sudoeste 0 -- -- 62
2019-09-08 14:00:00 29 15 Sur 23 Sur 0 -- -- 52
2019-09-08 13:00:00 29.5 10 Sur 23 Sudeste 0 -- -- 50
2019-09-08 12:00:00 28.5 8 Este 18 Sudeste 0 -- -- 50
2019-09-08 11:00:00 26.6 6 Sudeste 12 Sur 0 -- -- 56
2019-09-08 10:00:00 24.2 7 Norte 13 Norte 0 -- -- 62
2019-09-08 09:00:00 18.9 6 Norte 10 Norte 0 -- -- 84
2019-09-08 08:00:00 18 5 Nordeste 8 Norte 0 -- -- 85
2019-09-08 07:00:00 18.7 4 Norte 8 Norte 0 -- -- 85
2019-09-08 06:00:00 19.2 5 Norte 8 Norte 0 -- -- 84
2019-09-08 05:00:00 19.4 5 Noroeste 8 Norte 0 -- -- 83
2019-09-08 04:00:00 19.8 5 Norte 6 Norte 0 -- -- 83
2019-09-08 03:00:00 21.8 3 Sudeste 16 Este 0 -- -- 75
2019-09-08 02:00:00 21.3 3 Noroeste 8 Oeste 0 -- -- 79
2019-09-08 01:00:00 24.6 4 Sur 13 Sudoeste 0 -- -- 70
2019-09-08 00:00:00 24.7 8 Sudoeste 14 Sudoeste 0 -- -- 73
2019-09-07 23:00:00 24.4 6 Oeste 15 Oeste 0 -- -- 73
2019-09-07 22:00:00 24.9 6 Oeste 17 Oeste 0 -- -- 71
2019-09-07 21:00:00 25.6 8 Oeste 16 Sudoeste 0 -- -- 69
2019-09-07 20:00:00 26.8 10 Sudoeste 18 Sudoeste 0 -- -- 66
2019-09-07 19:00:00 28 13 Sudoeste 21 Sudoeste 0 -- -- 61
2019-09-07 18:00:00 28.7 12 Sudoeste 23 Sudoeste 0 -- -- 58
2019-09-07 17:00:00 29.2 12 Sudoeste 22 Sudoeste 0 -- -- 55
2019-09-07 16:00:00 29.9 12 Sur 21 Sudoeste 0 -- -- 50
2019-09-07 15:00:00 30 10 Sur 18 Sur 0 -- -- 49
2019-09-07 14:00:00 29.7 9 Sur 16 Sur 0 -- -- 50
2019-09-07 13:00:00 29 9 Sur 18 Sudeste 0 -- -- 49
2019-09-07 12:00:00 27.9 9 Sudeste 16 Sudeste 0 -- -- 49
2019-09-07 11:00:00 26.3 6 Sudeste 14 Sudeste 0 -- -- 53
2019-09-07 10:00:00 24 4 Este 10 Norte 0 -- -- 60
2019-09-07 09:00:00 19.6 5 Nordeste 9 Norte 0 -- -- 83
2019-09-07 08:00:00 18.8 5 Nordeste 10 Nordeste 0 -- -- 87
2019-09-07 07:00:00 18.8 5 Norte 7 Norte 0 -- -- 83
2019-09-07 06:00:00 20.2 3 Norte 7 Sudeste 0 -- -- 78
2019-09-07 05:00:00 24.2 4 Sur 13 Sur 0 -- -- 70
2019-09-07 04:00:00 24.6 6 Sudoeste 19 Sur 0 -- -- 68
2019-09-07 03:00:00 25 10 Sur 22 Sudoeste 0 -- -- 64
2019-09-07 02:00:00 25.1 6 Sudoeste 13 Sudoeste 0 -- -- 70
2019-09-07 01:00:00 25.1 8 Oeste 13 Oeste 0 -- -- 73
2019-09-07 00:00:00 25.5 8 Sudoeste 12 Oeste 0 -- -- 78
2019-09-06 23:00:00 25.6 8 Oeste 13 Oeste 0 -- -- 77
2019-09-06 22:00:00 26.8 6 Sudoeste 12 Oeste 0 -- -- 64
2019-09-06 21:00:00 27.3 6 Oeste 18 Oeste 0 -- -- 56
2019-09-06 20:00:00 28.9 9 Sudoeste 19 Sudoeste 0 -- -- 57
2019-09-06 19:00:00 30.4 9 Sudoeste 19 Sudoeste 0 -- -- 49
2019-09-06 18:00:00 30.2 12 Sudoeste 21 Sudoeste 0 -- -- 54
2019-09-06 17:00:00 30.4 14 Sudoeste 22 Sudoeste 0 -- -- 55
2019-09-06 16:00:00 30.2 12 Sur 19 Sur 0 -- -- 53
2019-09-06 15:00:00 29.8 11 Sudoeste 19 Sudoeste 0 -- -- 54
2019-09-06 14:00:00 28.6 12 Sudoeste 19 Sudeste 0 -- -- 58
2019-09-06 13:00:00 28.6 11 Sur 17 Sudeste 0 -- -- 56
2019-09-06 12:00:00 28.1 8 Sur 16 Sudeste 0 -- -- 56
2019-09-06 11:00:00 25.8 6 Nordeste 13 Norte 0 -- -- 68
2019-09-06 10:00:00 22.1 7 Norte 12 Norte 0 -- -- 91
2019-09-06 09:00:00 20 6 Norte 9 Norte 0 -- -- 98
2019-09-06 08:00:00 20.3 5 Nordeste 12 Nordeste 0 -- -- 98
2019-09-06 07:00:00 20.6 7 Nordeste 12 Nordeste 0 -- -- 98
2019-09-06 06:00:00 19.5 5 Nordeste 11 Nordeste 0 -- -- 99
2019-09-06 05:00:00 18.1 5 Nordeste 9 Nordeste 0 -- -- 97
2019-09-06 04:00:00 18.6 3 Nordeste 5 Norte 0 -- -- 96
2019-09-06 03:00:00 19.5 3 Norte 8 Sudoeste 0 -- -- 95
2019-09-06 02:00:00 20 3 Oeste 9 Sudoeste 0 -- -- 92
2019-09-06 01:00:00 20.7 4 Sudoeste 7 Sur 0 -- -- 94
2019-09-06 00:00:00 23.3 5 Sudoeste 10 Sudoeste 0 -- -- 92
2019-09-05 23:00:00 23 5 Sudeste 17 Sudoeste 0 -- -- 91
2019-09-05 22:00:00 23.7 12 Oeste 17 Sudoeste 0 -- -- 90
2019-09-05 21:00:00 24.2 7 Sudoeste 15 Sudoeste 0 -- -- 86
2019-09-05 20:00:00 25.1 10 Sudoeste 16 Sudoeste 0 -- -- 79
2019-09-05 19:00:00 26 10 Sudoeste 18 Sudoeste 0 -- -- 74
2019-09-05 18:00:00 26.5 11 Sur 20 Sudeste 0 -- -- 75
2019-09-05 17:00:00 26.7 12 Sur 19 Sur 0 -- -- 72
2019-09-05 16:00:00 27 12 Sur 17 Sur 0 -- -- 69
2019-09-05 15:00:00 26.6 12 Sudeste 20 Sur 0 -- -- 73
2019-09-05 14:00:00 27.2 9 Sudeste 18 Sudeste 0 -- -- 68
2019-09-05 13:00:00 26.8 12 Sudeste 19 Sudeste 0 -- -- 64
2019-09-05 12:00:00 26.5 8 Sur 14 Sudeste 0 -- -- 74
2019-09-05 11:00:00 25.9 3 Sudeste 13 Norte 0 -- -- 62
2019-09-05 10:00:00 21.3 6 Norte 10 Norte 0 -- -- 85
2019-09-05 09:00:00 17.9 4 Nordeste 8 Norte 0 -- -- 95
2019-09-05 08:00:00 16.5 4 Norte 6 Norte 0 -- -- 91
2019-09-05 07:00:00 17.6 4 Norte 8 Norte 0 -- -- 89
2019-09-05 06:00:00 18.4 5 Norte 10 Noroeste 0 -- -- 89
2019-09-05 05:00:00 18.6 8 Noroeste 13 Noroeste 0 -- -- 91
2019-09-05 04:00:00 17.8 3 Noroeste 5 Sudeste 0 -- -- 92
2019-09-05 03:00:00 18.5 2 Sur 5 Sur 0 -- -- 88
2019-09-05 02:00:00 19.1 2 Sudoeste 5 Sur 0 -- -- 89
2019-09-05 01:00:00 20.2 3 Nordeste 6 Sudeste 0 -- -- 89
2019-09-05 00:00:00 21.6 0 Calma 4 Noroeste 0 -- -- 87
2019-09-04 23:00:00 22.6 2 Nordeste 5 Norte 0 -- -- 84
2019-09-04 22:00:00 24.7 4 Sudoeste 15 Oeste 0 -- -- 82
2019-09-04 21:00:00 24.9 12 Oeste 21 Oeste 0 -- -- 81
2019-09-04 20:00:00 26 9 Sudoeste 15 Sudoeste 0 -- -- 75
2019-09-04 19:00:00 26.3 11 Sudoeste 21 Sudoeste 0 -- -- 73
2019-09-04 18:00:00 27.7 14 Sudoeste 23 Sudoeste 0 -- -- 63
2019-09-04 17:00:00 28.5 17 Sudoeste 24 Sudoeste 0 -- -- 59
2019-09-04 16:00:00 29.2 17 Sudoeste 24 Sudoeste 0 -- -- 52
2019-09-04 15:00:00 29.7 14 Sudoeste 22 Sudoeste 0 -- -- 50
2019-09-04 14:00:00 29.8 13 Sudoeste 18 Sudoeste 0 -- -- 49
2019-09-04 13:00:00 29.5 12 Sudoeste 17 Sudoeste 0 -- -- 52
2019-09-04 12:00:00 28.4 9 Sudoeste 14 Sudoeste 0 -- -- 57
2019-09-04 11:00:00 27 9 Sudoeste 13 Sudoeste 0 -- -- 60
2019-09-04 10:00:00 25 5 Oeste 12 Oeste 0 -- -- 65
2019-09-04 09:00:00 19.6 3 Noroeste 8 Noroeste 0 -- -- 82
2019-09-04 08:00:00 17.8 5 Noroeste 7 Norte 0 -- -- 85
2019-09-04 07:00:00 18 4 Noroeste 7 Noroeste 0 -- -- 85
2019-09-04 06:00:00 18.5 4 Noroeste 5 Oeste 0 -- -- 86
2019-09-04 05:00:00 20.3 3 Noroeste 7 Noroeste 0 -- -- 85
2019-09-04 04:00:00 21.6 4 Oeste 8 Oeste 0 -- -- 82
2019-09-04 03:00:00 23.4 5 Sudoeste 14 Noroeste 0 -- -- 79
2019-09-04 02:00:00 23.8 10 Noroeste 20 Noroeste 0 -- -- 76
2019-09-04 01:00:00 23.3 6 Oeste 13 Oeste 0 -- -- 80
2019-09-04 00:00:00 23.7 5 Oeste 14 Noroeste 0 -- -- 79
2019-09-03 23:00:00 24.2 6 Oeste 14 Noroeste 0 -- -- 79
2019-09-03 22:00:00 25.2 10 Sudoeste 16 Sudoeste 0 -- -- 78
2019-09-03 21:00:00 26.3 6 Sudoeste 15 Sudoeste 0 -- -- 70
2019-09-03 20:00:00 27.5 10 Sudoeste 20 Sudoeste 0 -- -- 66
2019-09-03 19:00:00 28.4 14 Sudoeste 25 Sudoeste 0 -- -- 62
2019-09-03 18:00:00 30.3 15 Sudoeste 23 Sudoeste 0 -- -- 52
2019-09-03 17:00:00 31 10 Sudoeste 17 Sudoeste 0 -- -- 48
2019-09-03 16:00:00 30.2 10 Sudoeste 17 Sudoeste 0 -- -- 52
2019-09-03 15:00:00 29.8 9 Sur 15 Sur 0 -- -- 52
2019-09-03 14:00:00 29.5 9 Sudoeste 15 Sudoeste 0 -- -- 51
2019-09-03 13:00:00 28.6 10 Sudoeste 17 Sudoeste 0 -- -- 56
2019-09-03 12:00:00 28.3 8 Sudoeste 11 Sudoeste 0 -- -- 52
2019-09-03 11:00:00 26.6 4 Sudeste 12 Nordeste 0 -- -- 56
2019-09-03 10:00:00 23.8 7 Nordeste 16 Norte 0 -- -- 56
2019-09-03 09:00:00 19.2 5 Norte 12 Norte 0 -- -- 68
2019-09-03 08:00:00 17.6 7 Norte 11 Norte 0 -- -- 73
2019-09-03 07:00:00 16.1 4 Norte 8 Norte 0 -- -- 79
2019-09-03 06:00:00 16.8 5 Norte 8 Norte 0 -- -- 78
2019-09-03 05:00:00 16.8 5 Norte 8 Norte 0 -- -- 78
2019-09-03 04:00:00 17.4 3 Norte 7 Este 0 -- -- 77
2019-09-03 03:00:00 19.4 4 Este 9 Norte 0 -- -- 71
2019-09-03 02:00:00 19 6 Noroeste 10 Noroeste 0 -- -- 74
2019-09-03 01:00:00 19.1 5 Noroeste 6 Noroeste 0 -- -- 75
2019-09-03 00:00:00 20.1 5 Noroeste 8 Oeste 0 -- -- 72
2019-09-02 23:00:00 21.3 5 Oeste 8 Oeste 0 -- -- 70
2019-09-02 22:00:00 23.9 5 Oeste 14 Oeste 0 -- -- 64
2019-09-02 21:00:00 25.5 7 Oeste 21 Sudoeste 0 -- -- 64
2019-09-02 20:00:00 27 13 Oeste 26 Sudoeste 0 -- -- 58
2019-09-02 19:00:00 28.1 18 Sudoeste 30 Sudoeste 0 -- -- 57
2019-09-02 18:00:00 29.5 16 Sudoeste 27 Oeste 0 -- -- 49
2019-09-02 17:00:00 29 15 Sudoeste 23 Sudoeste 0 -- -- 54
2019-09-02 16:00:00 28.8 12 Sudoeste 21 Sudoeste 0 -- -- 57
2019-09-02 15:00:00 27.9 11 Sudoeste 16 Sudoeste 0 -- -- 60
2019-09-02 14:00:00 27.8 9 Sur 15 Sur 0 -- -- 60
2019-09-02 13:00:00 27.9 10 Sur 15 Sudeste 0 -- -- 60
2019-09-02 12:00:00 28 8 Sudeste 18 Sudeste 0 -- -- 59
2019-09-02 11:00:00 26.8 9 Este 19 Este 0 -- -- 61
2019-09-02 10:00:00 23.1 6 Nordeste 12 Nordeste 0 -- -- 67
2019-09-02 09:00:00 18.1 7 Nordeste 12 Nordeste 0 -- -- 79
2019-09-02 08:00:00 16.6 7 Norte 10 Norte 0 -- -- 83
2019-09-02 07:00:00 16.2 6 Norte 8 Noroeste 0 -- -- 86
2019-09-02 06:00:00 17.1 5 Noroeste 10 Noroeste 0 -- -- 86
2019-09-02 05:00:00 16.9 5 Noroeste 9 Noroeste 0 -- -- 91
2019-09-02 04:00:00 17 5 Noroeste 6 Noroeste 0 -- -- 91
2019-09-02 03:00:00 17.4 4 Norte 5 Norte 0 -- -- 91
2019-09-02 02:00:00 18.6 3 Este 5 Nordeste 0 -- -- 89
2019-09-02 01:00:00 19.7 0 Calma 6 Norte 0 -- -- 91
2019-09-02 00:00:00 20.1 4 Norte 5 Noroeste 0 -- -- 89
2019-09-01 23:00:00 21.4 3 Oeste 6 Sudoeste 0 -- -- 85
2019-09-01 22:00:00 23.5 4 Oeste 12 Oeste 0 -- -- 83
2019-09-01 21:00:00 24.1 8 Oeste 19 Sudoeste 0 -- -- 81
2019-09-01 20:00:00 25.2 11 Sudoeste 20 Sudoeste 0 -- -- 78
2019-09-01 19:00:00 25.9 12 Sudoeste 19 Sudoeste 0 -- -- 73
2019-09-01 18:00:00 26.2 11 Sudoeste 19 Sudoeste 0 -- -- 74
2019-09-01 17:00:00 25.8 12 Sudoeste 18 Sudoeste 0 -- -- 75
2019-09-01 16:00:00 25.8 10 Sudoeste 18 Sur 0 -- -- 73
2019-09-01 15:00:00 25.6 10 Sur 20 Sur 0 -- -- 74
2019-09-01 14:00:00 25.3 13 Sur 22 Sur 0 -- -- 75
2019-09-01 13:00:00 25.2 11 Sur 23 Sudeste 0 -- -- 75
2019-09-01 12:00:00 25.2 12 Sudeste 24 Sudeste 0 -- -- 77
2019-09-01 11:00:00 24.3 10 Sudeste 22 Sudeste 0 -- -- 79
2019-09-01 10:00:00 22.5 5 Nordeste 14 Este 0 -- -- 85
2019-09-01 09:00:00 19.5 6 Norte 10 Norte 0 -- -- 91
2019-09-01 08:00:00 18.2 5 Norte 8 Norte 0 -- -- 95
2019-09-01 07:00:00 18 4 Norte 6 Norte 0 -- -- 95
2019-09-01 06:00:00 17.3 3 Norte 5 Norte 0 -- -- 92
2019-09-01 05:00:00 17.7 2 Noroeste 5 Norte 0 -- -- 91
2019-09-01 04:00:00 18.2 4 Nordeste 5 Norte 0 -- -- 90
2019-09-01 03:00:00 18.3 0 Calma 5 Este 0 -- -- 89
2019-09-01 02:00:00 18.9 2 Norte 6 Este 0 -- -- 87
2019-09-01 01:00:00 19.5 2 Nordeste 6 Este 0 -- -- 86
2019-09-01 00:00:00 20.6 2 Nordeste 5 Norte 0 -- -- 85
2019-08-31 23:00:00 22.4 3 Nordeste 6 Nordeste 0 -- -- 84
2019-08-31 22:00:00 24 3 Sudoeste 11 Sudoeste 0 -- -- 79
2019-08-31 21:00:00 24.9 7 Sudoeste 15 Sudoeste 0 -- -- 76
2019-08-31 20:00:00 26.4 10 Sudoeste 20 Oeste 0 -- -- 69
2019-08-31 19:00:00 27.5 14 Sudoeste 21 Sudoeste 0 -- -- 60
2019-08-31 18:00:00 28.3 15 Sudoeste 24 Sudoeste 0 -- -- 56
2019-08-31 17:00:00 29 18 Sudoeste 25 Sudoeste 0 -- -- 49
2019-08-31 16:00:00 29.9 14 Sudoeste 22 Sudoeste 0 -- -- 45
2019-08-31 15:00:00 29.4 13 Sudoeste 19 Sudoeste 0 -- -- 51
2019-08-31 14:00:00 30.5 9 Sur 14 Sur 0 -- -- 41
2019-08-31 13:00:00 29.8 11 Sudeste 15 Sudeste 0 -- -- 40
2019-08-31 12:00:00 29.3 8 Sur 12 Sur 0 -- -- 41
2019-08-31 11:00:00 28 5 Sudoeste 9 Sur 0 -- -- 42
2019-08-31 10:00:00 25.2 3 Norte 12 Norte 0 -- -- 43
2019-08-31 09:00:00 20.3 4 Nordeste 8 Norte 0 -- -- 58
2019-08-31 08:00:00 18.5 5 Norte 11 Noroeste 0 -- -- 64
2019-08-31 07:00:00 18.6 3 Noroeste 5 Noroeste 0 -- -- 66
2019-08-31 06:00:00 19.5 3 Norte 8 Noroeste 0 -- -- 67
2019-08-31 05:00:00 20.5 4 Norte 10 Noroeste 0 -- -- 67
2019-08-31 04:00:00 21 3 Noroeste 10 Noroeste 0 -- -- 73
2019-08-31 03:00:00 20.1 3 Oeste 5 Oeste 0 -- -- 73
2019-08-31 02:00:00 21.4 3 Oeste 8 Oeste 0 -- -- 73
2019-08-31 01:00:00 21.6 4 Sudoeste 6 Sudoeste 0 -- -- 65
2019-08-31 00:00:00 22.8 4 Noroeste 8 Oeste 0 -- -- 63
2019-08-30 23:00:00 24.4 4 Noroeste 14 Oeste 0 -- -- 60
2019-08-30 22:00:00 25.7 9 Oeste 20 Sudoeste 0 -- -- 60
2019-08-30 21:00:00 26.6 10 Oeste 21 Oeste 0 -- -- 57
2019-08-30 20:00:00 27.9 14 Oeste 23 Sudoeste 0 -- -- 53
2019-08-30 19:00:00 30.8 12 Sudoeste 22 Sudoeste 0 -- -- 41
2019-08-30 18:00:00 30 14 Oeste 22 Sudoeste 0 -- -- 45
2019-08-30 17:00:00 30.7 11 Sudoeste 21 Sudoeste 0 -- -- 45
2019-08-30 16:00:00 30.2 12 Sudoeste 18 Sudoeste 0 -- -- 48
2019-08-30 15:00:00 29.7 9 Sudoeste 15 Sudoeste 0 -- -- 49
2019-08-30 14:00:00 29.4 9 Sur 17 Sur 0 -- -- 52
2019-08-30 13:00:00 29.9 12 Sur 18 Sur 0 -- -- 44
2019-08-30 12:00:00 31.5 6 Este 14 Este 0 -- -- 36
2019-08-30 11:00:00 28.7 6 Nordeste 12 Este 0 -- -- 42
2019-08-30 10:00:00 26 4 Norte 11 Norte 0 -- -- 50
2019-08-30 09:00:00 20.5 6 Norte 12 Norte 0 -- -- 69
2019-08-30 08:00:00 17.8 8 Norte 11 Norte 0 -- -- 82
2019-08-30 07:00:00 18 4 Norte 10 Nordeste 0 -- -- 85
2019-08-30 06:00:00 18.9 4 Norte 8 Nordeste 0 -- -- 83
2019-08-30 05:00:00 18.4 5 Norte 7 Noroeste 0 -- -- 85
2019-08-30 04:00:00 18.6 5 Noroeste 7 Norte 0 -- -- 83
2019-08-30 03:00:00 19.2 4 Norte 6 Noroeste 0 -- -- 81
2019-08-30 02:00:00 19.4 3 Noroeste 6 Oeste 0 -- -- 77
2019-08-30 01:00:00 21 0 Calma 8 Oeste 0 -- -- 72
2019-08-30 00:00:00 22.1 5 Noroeste 11 Noroeste 0 -- -- 70
2019-08-29 23:00:00 24.2 5 Oeste 12 Sudoeste 0 -- -- 65
2019-08-29 22:00:00 24.8 8 Oeste 14 Sudoeste 0 -- -- 73
2019-08-29 21:00:00 25.9 8 Sudoeste 15 Sudoeste 0 -- -- 75
2019-08-29 20:00:00 29.2 9 Sudoeste 18 Sudoeste 0 -- -- 42
2019-08-29 19:00:00 31 12 Sudoeste 19 Sudoeste 0 -- -- 37
2019-08-29 18:00:00 32 13 Sudoeste 21 Sudoeste 0 -- -- 32
2019-08-29 17:00:00 32.3 14 Sudoeste 20 Sudoeste 0 -- -- 31
2019-08-29 16:00:00 32.5 14 Sudoeste 20 Sudoeste 0 -- -- 30
2019-08-29 15:00:00 32.1 12 Sudoeste 16 Sudoeste 0 -- -- 32
2019-08-29 14:00:00 30.9 9 Sur 16 Sudeste 0 -- -- 41
2019-08-29 13:00:00 31.3 9 Sudeste 16 Sudeste 0 -- -- 38
2019-08-29 12:00:00 30.1 9 Sudeste 14 Sudeste 0 -- -- 37
2019-08-29 11:00:00 27.9 5 Nordeste 13 Nordeste 0 -- -- 42
2019-08-29 10:00:00 24.5 7 Norte 19 Nordeste 0 -- -- 53
2019-08-29 09:00:00 21.4 4 Nordeste 12 Norte 0 -- -- 65
2019-08-29 08:00:00 18.7 7 Norte 11 Noroeste 0 -- -- 72
2019-08-29 07:00:00 19.2 3 Norte 7 Norte 0 -- -- 68
2019-08-29 06:00:00 21.4 2 Oeste 9 Oeste 0 -- -- 60
2019-08-29 05:00:00 22.3 0 Calma 5 Noroeste 0 -- -- 55
2019-08-29 04:00:00 24.2 0 Calma 16 Noroeste 0 -- -- 49
2019-08-29 03:00:00 24.9 9 Noroeste 17 Noroeste 0 -- -- 46
2019-08-29 02:00:00 25.9 4 Sudoeste 17 Noroeste 0 -- -- 38
2019-08-29 01:00:00 26.5 10 Noroeste 25 Noroeste 0 -- -- 36
2019-08-29 00:00:00 25.8 10 Noroeste 21 Noroeste 0 -- -- 43
2019-08-28 23:00:00 22.7 4 Nordeste 6 Noroeste 0 -- -- 72
2019-08-28 22:00:00 24 3 Oeste 14 Oeste 0 -- -- 69
2019-08-28 21:00:00 24.6 8 Oeste 22 Oeste 0 -- -- 70
2019-08-28 20:00:00 25.4 12 Sudoeste 25 Sudoeste 0 -- -- 71
2019-08-28 19:00:00 26.2 15 Sudoeste 28 Sudoeste 0 -- -- 64
2019-08-28 18:00:00 27.8 18 Sudoeste 27 Sudoeste 0 -- -- 58
2019-08-28 17:00:00 29.1 15 Sudoeste 24 Sudoeste 0 -- -- 52
2019-08-28 16:00:00 29.5 16 Sudoeste 24 Sudoeste 0 -- -- 48
2019-08-28 15:00:00 29.4 14 Sudoeste 21 Sudoeste 0 -- -- 50
2019-08-28 14:00:00 30.2 11 Sur 19 Sur 0 -- -- 48
2019-08-28 13:00:00 28.1 12 Sudoeste 16 Sur 0 -- -- 57
2019-08-28 12:00:00 27.4 6 Sur 12 Este 0 -- -- 55
2019-08-28 11:00:00 25.9 6 Nordeste 14 Norte 0 -- -- 55
2019-08-28 10:00:00 22.4 4 Este 8 Este 0 -- -- 68
2019-08-28 09:00:00 19 4 Norte 11 Norte 0 -- -- 82
2019-08-28 08:00:00 18.3 5 Norte 14 Noroeste 0 -- -- 84
2019-08-28 07:00:00 18.5 10 Norte 19 Noroeste 0 -- -- 84
2019-08-28 06:00:00 17 8 Noroeste 13 Noroeste 0 -- -- 91
2019-08-28 05:00:00 16.1 4 Norte 7 Noroeste 0 -- -- 90
2019-08-28 04:00:00 16.6 4 Norte 6 Norte 0 -- -- 90
2019-08-28 03:00:00 17.6 3 Norte 6 Norte 0 -- -- 90
2019-08-28 02:00:00 18.4 4 Norte 5 Norte 0 -- -- 89
2019-08-28 01:00:00 19.8 2 Nordeste 7 Norte 0 -- -- 86
2019-08-28 00:00:00 21.5 3 Norte 13 Sudoeste 0 -- -- 84
2019-08-27 23:00:00 23.1 8 Sudoeste 18 Sudoeste 0 -- -- 79
2019-08-27 22:00:00 23.1 9 Sudoeste 24 Sudoeste 0 -- -- 79
2019-08-27 21:00:00 23.7 9 Sudoeste 17 Sudoeste 0 -- -- 77
2019-08-27 20:00:00 24.3 11 Sudoeste 23 Sudoeste 0 -- -- 74
2019-08-27 19:00:00 24.2 16 Sudoeste 23 Sudoeste 0 -- -- 75
2019-08-27 18:00:00 24.6 14 Sudoeste 24 Sudoeste 0 -- -- 72
2019-08-27 17:00:00 25.3 13 Sudoeste 22 Sudoeste 0 -- -- 71
2019-08-27 16:00:00 25 12 Sur 22 Sur 0 -- -- 69
2019-08-27 15:00:00 25.1 13 Sur 22 Sur 0 -- -- 68
2019-08-27 14:00:00 24.8 12 Sur 24 Sur 0 -- -- 68
2019-08-27 13:00:00 24.7 13 Sudeste 21 Sudeste 0 -- -- 67
2019-08-27 12:00:00 24.2 12 Sudeste 20 Sudeste 0 -- -- 71
2019-08-27 11:00:00 23 10 Sudeste 16 Sudeste 0 -- -- 75
2019-08-27 10:00:00 21.4 8 Este 14 Sudeste 0 -- -- 83
2019-08-27 09:00:00 18 5 Nordeste 9 Nordeste 0 -- -- 96
2019-08-27 08:00:00 17.9 5 Nordeste 12 Nordeste 0 -- -- 95
2019-08-27 07:00:00 17.1 6 Nordeste 11 Nordeste 0 -- -- 96
2019-08-27 06:00:00 16.7 6 Norte 10 Nordeste 0 -- -- 95
2019-08-27 05:00:00 16.9 5 Norte 11 Norte 0 -- -- 95
2019-08-27 04:00:00 17.1 5 Nordeste 12 Norte 0 -- -- 93
2019-08-27 03:00:00 17.6 6 Nordeste 10 Norte 0 -- -- 92
2019-08-27 02:00:00 18.7 2 Este 8 Este 0 -- -- 89
2019-08-27 01:00:00 17.4 3 Nordeste 10 Sudeste 0 -- -- 91
2019-08-27 00:00:00 16.9 4 Nordeste 5 Este 0 -- -- 90
2019-08-26 23:00:00 18 2 Nordeste 5 Sudeste 0 -- -- 85
2019-08-26 22:00:00 20.3 3 Sudeste 5 Sudeste 0 -- -- 81
2019-08-26 21:00:00 21.9 3 Sudeste 9 Sudoeste 0 -- -- 78
2019-08-26 20:00:00 22.2 6 Oeste 20 Sudoeste 0 -- -- 77
2019-08-26 19:00:00 23.7 12 Sudoeste 18 Sudoeste 0 -- -- 72
2019-08-26 18:00:00 23.7 10 Sudeste 17 Sur 0 -- -- 71
2019-08-26 17:00:00 25.7 12 Sudeste 21 Sudeste 0 -- -- 63
2019-08-26 16:00:00 25.7 12 Sudeste 23 Sudeste 0 -- -- 63
2019-08-26 15:00:00 25.8 11 Sudeste 22 Sudeste 0 -- -- 63
2019-08-26 14:00:00 25.2 11 Sur 23 Sudeste 0 -- -- 69
2019-08-26 13:00:00 25.2 14 Sur 27 Sudeste 0 -- -- 71
2019-08-26 12:00:00 24.3 15 Sudeste 32 Sudeste 0 -- -- 76
2019-08-26 11:00:00 23.7 14 Sudeste 30 Este 0 -- -- 81
2019-08-26 10:00:00 23.7 9 Este 20 Este 0 -- -- 81
2019-08-26 09:00:00 22.6 10 Sudeste 17 Sudeste 0 -- -- 88
2019-08-26 08:00:00 20.1 3 Norte 8 Nordeste 0 -- -- 77
2019-08-26 07:00:00 20.1 5 Nordeste 9 Nordeste 0 -- -- 77
2019-08-26 06:00:00 20 4 Norte 8 Norte 0 -- -- 82
2019-08-26 05:00:00 19.5 4 Norte 8 Norte 0 -- -- 85
2019-08-26 04:00:00 19.7 4 Norte 7 Norte 0 -- -- 83
2019-08-26 03:00:00 18.4 4 Norte 5 Norte 0 -- -- 85
2019-08-26 02:00:00 19.9 3 Oeste 9 Oeste 0 -- -- 81
2019-08-26 01:00:00 22.1 5 Oeste 10 Noroeste 0 -- -- 76
2019-08-26 00:00:00 23 5 Oeste 13 Oeste 0 -- -- 74
2019-08-25 23:00:00 23.9 8 Oeste 15 Oeste 0 -- -- 70
2019-08-25 22:00:00 24.3 10 Oeste 19 Oeste 0 -- -- 66
2019-08-25 21:00:00 24.8 10 Oeste 23 Sudoeste 0 -- -- 65
2019-08-25 20:00:00 26 15 Sudoeste 27 Sudoeste 0 -- -- 64
2019-08-25 19:00:00 26.8 15 Sudoeste 27 Sudoeste 0 -- -- 63
2019-08-25 18:00:00 27.4 17 Sudoeste 30 Sudoeste 0 -- -- 59
2019-08-25 17:00:00 28.2 15 Sudoeste 27 Oeste 0 -- -- 52
2019-08-25 16:00:00 28.9 15 Sudoeste 24 Sudoeste 0 -- -- 46
2019-08-25 15:00:00 29.2 13 Sudoeste 23 Sudoeste 0 -- -- 41
2019-08-25 14:00:00 27.4 18 Sudoeste 24 Sudoeste 0 -- -- 53
2019-08-25 13:00:00 27.7 12 Sudoeste 20 Sudoeste 0 -- -- 49
2019-08-25 12:00:00 27.9 5 Sudoeste 14 Oeste 0 -- -- 41
2019-08-25 11:00:00 27.1 6 Noroeste 14 Norte 0 -- -- 40
2019-08-25 10:00:00 25 6 Norte 15 Norte 0 -- -- 47
2019-08-25 09:00:00 20.3 7 Norte 11 Norte 0 -- -- 70
2019-08-25 08:00:00 17.8 6 Nordeste 10 Norte 0 -- -- 84
2019-08-25 07:00:00 18.2 5 Norte 8 Noroeste 0 -- -- 82
2019-08-25 06:00:00 18.7 5 Norte 8 Noroeste 0 -- -- 85
2019-08-25 05:00:00 19.9 3 Noroeste 9 Noroeste 0 -- -- 80
2019-08-25 04:00:00 21.1 4 Noroeste 12 Oeste 0 -- -- 77
2019-08-25 03:00:00 22.4 4 Oeste 13 Sudoeste 0 -- -- 75
2019-08-25 02:00:00 23.2 8 Oeste 18 Sudoeste 0 -- -- 73
2019-08-25 01:00:00 23.3 10 Sudoeste 17 Sur 0 -- -- 74
2019-08-25 00:00:00 23.8 10 Sudoeste 18 Sudoeste 0 -- -- 70
2019-08-24 23:00:00 23.9 12 Sudoeste 21 Sudoeste 0 -- -- 74
2019-08-24 22:00:00 24.5 11 Sudoeste 21 Sudoeste 0 -- -- 68
2019-08-24 21:00:00 25.1 13 Sudoeste 24 Sudoeste 0 -- -- 67
2019-08-24 20:00:00 26.5 14 Sudoeste 27 Sudoeste 0 -- -- 62
2019-08-24 19:00:00 28.2 15 Sudoeste 25 Sudoeste 0 -- -- 51
2019-08-24 18:00:00 29.5 15 Sudoeste 26 Sudoeste 0 -- -- 45
2019-08-24 17:00:00 30.5 13 Sudoeste 27 Sudoeste 0 -- -- 38
2019-08-24 16:00:00 29.5 17 Sudoeste 29 Sudoeste 0 -- -- 43
2019-08-24 15:00:00 30.2 18 Sudoeste 28 Sudoeste 0 -- -- 40
2019-08-24 14:00:00 29.8 13 Sudoeste 21 Sudoeste 0 -- -- 42
2019-08-24 13:00:00 30.2 10 Sudeste 16 Sudeste 0 -- -- 37
2019-08-24 12:00:00 28.8 8 Sur 12 Sur 0 -- -- 42
2019-08-24 11:00:00 27.3 8 Sur 12 Sudoeste 0 -- -- 49
2019-08-24 10:00:00 25.5 4 Norte 10 Nordeste 0 -- -- 56
2019-08-24 09:00:00 20.4 4 Norte 9 Norte 0 -- -- 82
2019-08-24 08:00:00 18.2 5 Norte 9 Nordeste 0 -- -- 90
2019-08-24 07:00:00 18.7 6 Norte 10 Nordeste 0 -- -- 90
2019-08-24 06:00:00 19.1 5 Nordeste 8 Norte 0 -- -- 85
2019-08-24 05:00:00 20.9 4 Norte 12 Oeste 0 -- -- 80
2019-08-24 04:00:00 22.8 8 Oeste 17 Oeste 0 -- -- 76
2019-08-24 03:00:00 23.1 10 Oeste 22 Oeste 0 -- -- 78
2019-08-24 02:00:00 23.1 11 Oeste 21 Oeste 0 -- -- 77
2019-08-24 01:00:00 23.3 11 Sudoeste 22 Sudoeste 0 -- -- 80
2019-08-24 00:00:00 23.5 12 Oeste 20 Oeste 0 -- -- 77
2019-08-23 23:00:00 23.6 9 Oeste 23 Oeste 0 -- -- 77
2019-08-23 22:00:00 24.4 9 Oeste 20 Oeste 0 -- -- 74
2019-08-23 21:00:00 25.3 12 Oeste 25 Oeste 0 -- -- 68
2019-08-23 20:00:00 27.8 12 Sudoeste 19 Sudoeste 0 -- -- 57
2019-08-23 19:00:00 29.5 11 Sudoeste 19 Sudoeste 0 -- -- 50
2019-08-23 18:00:00 29.6 13 Sudoeste 20 Sudoeste 0 -- -- 50
2019-08-23 17:00:00 30.2 14 Sudoeste 22 Sudoeste 0 -- -- 47
2019-08-23 16:00:00 30.4 14 Sudoeste 22 Sudoeste 0 -- -- 43
2019-08-23 15:00:00 29.4 11 Sudoeste 18 Sudoeste 0 -- -- 46
2019-08-23 14:00:00 29.2 12 Sudoeste 17 Sudoeste 0 -- -- 42
2019-08-23 13:00:00 30.4 12 Sur 18 Sur 0 -- -- 41
2019-08-23 12:00:00 31.4 9 Este 18 Este 0 -- -- 36
2019-08-23 11:00:00 28.9 9 Nordeste 23 Este 0 -- -- 42
2019-08-23 10:00:00 26.3 13 Nordeste 23 Este 0 -- -- 51
2019-08-23 09:00:00 22.8 8 Nordeste 14 Norte 0 -- -- 65
2019-08-23 08:00:00 20.1 7 Norte 13 Norte 0 -- -- 74
2019-08-23 07:00:00 19.5 8 Nordeste 13 Norte 0 -- -- 77
2019-08-23 06:00:00 19.7 5 Norte 10 Nordeste 0 -- -- 77
2019-08-23 05:00:00 20.4 6 Norte 11 Nordeste 0 -- -- 75
2019-08-23 04:00:00 20.4 4 Norte 10 Nordeste 0 -- -- 75
2019-08-23 03:00:00 21 5 Norte 8 Norte 0 -- -- 74
2019-08-23 02:00:00 21.7 5 Noroeste 8 Noroeste 0 -- -- 73
2019-08-23 01:00:00 23.1 5 Oeste 10 Oeste 0 -- -- 67
2019-08-23 00:00:00 23.3 5 Noroeste 11 Oeste 0 -- -- 67
2019-08-22 23:00:00 25 5 Oeste 14 Sudoeste 0 -- -- 61
2019-08-22 22:00:00 26 6 Sudoeste 10 Sudoeste 0 -- -- 59
2019-08-22 21:00:00 27.2 7 Oeste 17 Sudoeste 0 -- -- 56
2019-08-22 20:00:00 28.3 10 Sudoeste 20 Sudoeste 0 -- -- 55
2019-08-22 19:00:00 29.3 10 Sudoeste 21 Sudoeste 0 -- -- 53
2019-08-22 18:00:00 29.8 13 Sudoeste 25 Sudoeste 0 -- -- 51
2019-08-22 17:00:00 30.7 13 Sudoeste 22 Sudoeste 0 -- -- 49
2019-08-22 16:00:00 31.4 12 Sudoeste 19 Sudoeste 0 -- -- 46
2019-08-22 15:00:00 31.2 13 Sudoeste 21 Sudeste 0 -- -- 47
2019-08-22 14:00:00 30.3 12 Sur 19 Sur 0 -- -- 49
2019-08-22 13:00:00 30.9 10 Sur 21 Sudeste 0 -- -- 49
2019-08-22 12:00:00 30.4 9 Sudeste 21 Este 0 -- -- 49
2019-08-22 11:00:00 28.6 8 Este 18 Este 0 -- -- 54
2019-08-22 10:00:00 25.7 9 Nordeste 18 Nordeste 0 -- -- 65
2019-08-22 09:00:00 21.7 6 Nordeste 11 Norte 0 -- -- 79
2019-08-22 08:00:00 19.7 6 Norte 9 Norte 0 -- -- 86
2019-08-22 07:00:00 19.9 5 Norte 8 Norte 0 -- -- 86
2019-08-22 06:00:00 20.8 5 Nordeste 8 Norte 0 -- -- 82
2019-08-22 05:00:00 23.2 4 Sudoeste 14 Sur 0 -- -- 76
2019-08-22 04:00:00 23.8 8 Sur 18 Sur 0 -- -- 74
2019-08-22 03:00:00 22.9 7 Sudoeste 17 Sur 0 -- -- 77
2019-08-22 02:00:00 23.1 5 Sudoeste 14 Oeste 0 -- -- 75
2019-08-22 01:00:00 24.1 9 Oeste 15 Oeste 0 -- -- 70
2019-08-22 00:00:00 24.1 3 Oeste 9 Oeste 0 -- -- 71
2019-08-21 23:00:00 25.1 8 Oeste 18 Oeste 0 -- -- 69
2019-08-21 22:00:00 24.7 10 Oeste 26 Sudoeste 0 -- -- 70
2019-08-21 21:00:00 25.6 11 Oeste 22 Oeste 0 -- -- 68
2019-08-21 20:00:00 26.9 13 Oeste 25 Sudoeste 0 -- -- 63
2019-08-21 19:00:00 27.6 15 Oeste 27 Oeste 0 -- -- 61
2019-08-21 18:00:00 28.5 17 Oeste 28 Sudoeste 0 -- -- 59
2019-08-21 17:00:00 28.8 19 Sudoeste 28 Oeste 0 -- -- 57
2019-08-21 16:00:00 29.7 16 Sudoeste 27 Sudoeste 0 -- -- 53
2019-08-21 15:00:00 29.5 13 Sudoeste 19 Sudoeste 0 -- -- 52
2019-08-21 14:00:00 29.1 11 Sudoeste 16 Sudoeste 0 -- -- 54
2019-08-21 13:00:00 28 9 Sudoeste 15 Sudoeste 0 -- -- 57
2019-08-21 12:00:00 27.4 8 Sudeste 13 Sudeste 0 -- -- 59
2019-08-21 11:00:00 26.3 7 Sur 12 Sur 0 -- -- 62
2019-08-21 10:00:00 23.6 7 Nordeste 14 Norte 0 -- -- 55
2019-08-21 09:00:00 19.2 7 Nordeste 13 Norte 0 -- -- 67
2019-08-21 08:00:00 16.3 7 Norte 12 Nordeste 0 -- -- 75
2019-08-21 07:00:00 15.7 7 Norte 12 Nordeste 0 -- -- 80
2019-08-21 06:00:00 15.4 4 Norte 9 Norte 0 -- -- 89
2019-08-21 05:00:00 14 4 Noroeste 7 Noroeste 0 -- -- 84
2019-08-21 04:00:00 14.5 3 Nordeste 6 Nordeste 0 -- -- 76
2019-08-21 03:00:00 15.9 3 Nordeste 6 Norte 0 -- -- 71
2019-08-21 02:00:00 17.6 3 Este 12 Noroeste 0 -- -- 67
2019-08-21 01:00:00 17.2 8 Noroeste 11 Norte 0 -- -- 71
2019-08-21 00:00:00 18.7 4 Oeste 9 Oeste 0 -- -- 74